sensor_id;sensor_type;location;lat;lon;timestamp;P1;durP1;ratioP1;P2;durP2;ratioP2
4055;SDS011;2043;52.184;8.690;2023-09-12T00:01:12;7.67;;;3.50;;
4055;SDS011;2043;52.184;8.690;2023-09-12T00:03:38;12.27;;;3.30;;
4055;SDS011;2043;52.184;8.690;2023-09-12T00:06:05;10.43;;;3.57;;
4055;SDS011;2043;52.184;8.690;2023-09-12T00:08:32;6.40;;;3.00;;
4055;SDS011;2043;52.184;8.690;2023-09-12T00:11:03;4.60;;;3.03;;
4055;SDS011;2043;52.184;8.690;2023-09-12T00:13:32;7.57;;;3.03;;
4055;SDS011;2043;52.184;8.690;2023-09-12T00:15:59;6.70;;;3.63;;
4055;SDS011;2043;52.184;8.690;2023-09-12T00:18:27;5.63;;;3.13;;
4055;SDS011;2043;52.184;8.690;2023-09-12T00:20:54;5.97;;;3.70;;
4055;SDS011;2043;52.184;8.690;2023-09-12T00:23:21;18.73;;;4.50;;
4055;SDS011;2043;52.184;8.690;2023-09-12T00:25:50;5.70;;;3.53;;
4055;SDS011;2043;52.184;8.690;2023-09-12T00:28:18;6.40;;;3.53;;
4055;SDS011;2043;52.184;8.690;2023-09-12T00:30:45;5.57;;;3.50;;
4055;SDS011;2043;52.184;8.690;2023-09-12T00:33:12;6.40;;;4.10;;
4055;SDS011;2043;52.184;8.690;2023-09-12T00:35:39;7.40;;;4.00;;
4055;SDS011;2043;52.184;8.690;2023-09-12T00:38:06;8.60;;;4.47;;
4055;SDS011;2043;52.184;8.690;2023-09-12T00:40:34;7.30;;;4.50;;
4055;SDS011;2043;52.184;8.690;2023-09-12T00:43:01;6.73;;;4.20;;
4055;SDS011;2043;52.184;8.690;2023-09-12T00:45:28;10.13;;;4.67;;
4055;SDS011;2043;52.184;8.690;2023-09-12T00:47:54;12.27;;;4.20;;
4055;SDS011;2043;52.184;8.690;2023-09-12T00:50:25;9.70;;;4.80;;
4055;SDS011;2043;52.184;8.690;2023-09-12T00:52:53;7.23;;;4.80;;
4055;SDS011;2043;52.184;8.690;2023-09-12T00:55:21;13.03;;;4.90;;
4055;SDS011;2043;52.184;8.690;2023-09-12T00:57:48;7.63;;;4.50;;
4055;SDS011;2043;52.184;8.690;2023-09-12T01:00:16;12.30;;;4.73;;
4055;SDS011;2043;52.184;8.690;2023-09-12T01:02:44;9.77;;;5.37;;
4055;SDS011;2043;52.184;8.690;2023-09-12T01:05:13;8.27;;;4.80;;
4055;SDS011;2043;52.184;8.690;2023-09-12T01:07:41;7.20;;;4.70;;
4055;SDS011;2043;52.184;8.690;2023-09-12T01:10:09;7.33;;;4.40;;
4055;SDS011;2043;52.184;8.690;2023-09-12T01:12:36;6.40;;;3.30;;
4055;SDS011;2043;52.184;8.690;2023-09-12T01:15:03;6.10;;;3.70;;
4055;SDS011;2043;52.184;8.690;2023-09-12T01:17:34;8.70;;;4.93;;
4055;SDS011;2043;52.184;8.690;2023-09-12T01:20:01;9.53;;;6.93;;
4055;SDS011;2043;52.184;8.690;2023-09-12T01:28:31;16.87;;;10.50;;
4055;SDS011;2043;52.184;8.690;2023-09-12T01:31:01;17.20;;;10.30;;
4055;SDS011;2043;52.184;8.690;2023-09-12T01:33:29;21.43;;;11.07;;
4055;SDS011;2043;52.184;8.690;2023-09-12T01:35:56;17.47;;;13.90;;
4055;SDS011;2043;52.184;8.690;2023-09-12T01:38:23;17.87;;;13.17;;
4055;SDS011;2043;52.184;8.690;2023-09-12T01:40:50;20.70;;;14.30;;
4055;SDS011;2043;52.184;8.690;2023-09-12T01:43:19;17.60;;;11.90;;
4055;SDS011;2043;52.184;8.690;2023-09-12T01:45:58;20.77;;;13.90;;
4055;SDS011;2043;52.184;8.690;2023-09-12T01:48:28;20.70;;;11.97;;
4055;SDS011;2043;52.184;8.690;2023-09-12T01:51:03;14.47;;;10.93;;
4055;SDS011;2043;52.184;8.690;2023-09-12T01:53:31;15.13;;;10.70;;
4055;SDS011;2043;52.184;8.690;2023-09-12T01:56:01;14.83;;;10.40;;
4055;SDS011;2043;52.184;8.690;2023-09-12T01:58:27;13.73;;;9.83;;
4055;SDS011;2043;52.184;8.690;2023-09-12T02:00:55;12.77;;;9.27;;
4055;SDS011;2043;52.184;8.690;2023-09-12T02:03:22;14.70;;;8.90;;
4055;SDS011;2043;52.184;8.690;2023-09-12T02:05:49;13.53;;;8.50;;
4055;SDS011;2043;52.184;8.690;2023-09-12T02:08:15;16.60;;;7.90;;
4055;SDS011;2043;52.184;8.690;2023-09-12T02:10:42;13.93;;;8.60;;
4055;SDS011;2043;52.184;8.690;2023-09-12T02:13:09;16.83;;;8.60;;
4055;SDS011;2043;52.184;8.690;2023-09-12T02:15:36;11.23;;;8.17;;
4055;SDS011;2043;52.184;8.690;2023-09-12T02:18:03;10.87;;;7.63;;
4055;SDS011;2043;52.184;8.690;2023-09-12T02:20:30;11.93;;;7.77;;
4055;SDS011;2043;52.184;8.690;2023-09-12T02:22:58;14.83;;;8.30;;
4055;SDS011;2043;52.184;8.690;2023-09-12T02:25:24;13.80;;;7.90;;
4055;SDS011;2043;52.184;8.690;2023-09-12T02:27:51;11.80;;;7.70;;
4055;SDS011;2043;52.184;8.690;2023-09-12T02:30:18;13.77;;;7.67;;
4055;SDS011;2043;52.184;8.690;2023-09-12T02:32:45;14.60;;;8.63;;
4055;SDS011;2043;52.184;8.690;2023-09-12T02:35:12;11.53;;;8.10;;
4055;SDS011;2043;52.184;8.690;2023-09-12T02:37:38;18.70;;;9.63;;
4055;SDS011;2043;52.184;8.690;2023-09-12T02:40:05;17.60;;;13.90;;
4055;SDS011;2043;52.184;8.690;2023-09-12T02:42:33;25.20;;;17.77;;
4055;SDS011;2043;52.184;8.690;2023-09-12T02:45:00;32.17;;;22.03;;
4055;SDS011;2043;52.184;8.690;2023-09-12T02:47:27;32.93;;;21.70;;
4055;SDS011;2043;52.184;8.690;2023-09-12T02:49:53;44.57;;;23.40;;
4055;SDS011;2043;52.184;8.690;2023-09-12T02:52:21;28.17;;;21.03;;
4055;SDS011;2043;52.184;8.690;2023-09-12T02:54:48;34.17;;;23.40;;
4055;SDS011;2043;52.184;8.690;2023-09-12T02:57:15;31.40;;;21.40;;
4055;SDS011;2043;52.184;8.690;2023-09-12T02:59:42;28.17;;;20.50;;
4055;SDS011;2043;52.184;8.690;2023-09-12T03:02:08;28.07;;;18.43;;
4055;SDS011;2043;52.184;8.690;2023-09-12T03:04:35;29.20;;;19.20;;
4055;SDS011;2043;52.184;8.690;2023-09-12T03:09:47;29.47;;;19.80;;
4055;SDS011;2043;52.184;8.690;2023-09-12T03:12:16;28.57;;;19.37;;
4055;SDS011;2043;52.184;8.690;2023-09-12T03:32:34;25.10;;;16.77;;
4055;SDS011;2043;52.184;8.690;2023-09-12T03:35:01;24.80;;;15.53;;
4055;SDS011;2043;52.184;8.690;2023-09-12T03:37:27;28.57;;;17.10;;
4055;SDS011;2043;52.184;8.690;2023-09-12T03:39:54;23.50;;;16.10;;
4055;SDS011;2043;52.184;8.690;2023-09-12T03:42:21;24.10;;;16.20;;
4055;SDS011;2043;52.184;8.690;2023-09-12T03:44:52;24.03;;;17.30;;
4055;SDS011;2043;52.184;8.690;2023-09-12T03:47:19;24.00;;;15.47;;
4055;SDS011;2043;52.184;8.690;2023-09-12T03:49:46;23.00;;;15.57;;
4055;SDS011;2043;52.184;8.690;2023-09-12T03:52:12;21.47;;;16.33;;
4055;SDS011;2043;52.184;8.690;2023-09-12T03:54:39;21.17;;;15.90;;
4055;SDS011;2043;52.184;8.690;2023-09-12T03:57:07;21.63;;;15.80;;
4055;SDS011;2043;52.184;8.690;2023-09-12T03:59:34;21.97;;;15.87;;
4055;SDS011;2043;52.184;8.690;2023-09-12T04:02:04;22.20;;;15.43;;
4055;SDS011;2043;52.184;8.690;2023-09-12T04:04:31;28.30;;;17.40;;
4055;SDS011;2043;52.184;8.690;2023-09-12T04:06:58;25.17;;;17.57;;
4055;SDS011;2043;52.184;8.690;2023-09-12T04:09:25;33.30;;;17.00;;
4055;SDS011;2043;52.184;8.690;2023-09-12T04:11:54;22.77;;;15.97;;
4055;SDS011;2043;52.184;8.690;2023-09-12T04:14:20;28.93;;;16.40;;
4055;SDS011;2043;52.184;8.690;2023-09-12T04:16:47;25.80;;;17.07;;
4055;SDS011;2043;52.184;8.690;2023-09-12T04:19:15;29.83;;;16.93;;
4055;SDS011;2043;52.184;8.690;2023-09-12T04:21:41;31.23;;;17.37;;
4055;SDS011;2043;52.184;8.690;2023-09-12T04:24:08;24.10;;;13.40;;
4055;SDS011;2043;52.184;8.690;2023-09-12T04:26:35;24.53;;;12.00;;
4055;SDS011;2043;52.184;8.690;2023-09-12T04:29:02;20.07;;;11.87;;
4055;SDS011;2043;52.184;8.690;2023-09-12T04:31:29;24.50;;;10.80;;
4055;SDS011;2043;52.184;8.690;2023-09-12T04:33:56;29.90;;;10.63;;
4055;SDS011;2043;52.184;8.690;2023-09-12T04:36:22;20.43;;;11.03;;
4055;SDS011;2043;52.184;8.690;2023-09-12T04:38:49;20.30;;;11.10;;
4055;SDS011;2043;52.184;8.690;2023-09-12T04:41:16;18.50;;;10.57;;
4055;SDS011;2043;52.184;8.690;2023-09-12T04:43:43;19.23;;;10.90;;
4055;SDS011;2043;52.184;8.690;2023-09-12T04:46:11;27.20;;;10.60;;
4055;SDS011;2043;52.184;8.690;2023-09-12T04:48:38;16.50;;;8.73;;
4055;SDS011;2043;52.184;8.690;2023-09-12T04:51:05;17.67;;;9.13;;
4055;SDS011;2043;52.184;8.690;2023-09-12T04:53:32;17.10;;;9.03;;
4055;SDS011;2043;52.184;8.690;2023-09-12T04:56:02;21.80;;;9.03;;
4055;SDS011;2043;52.184;8.690;2023-09-12T04:58:29;15.20;;;7.77;;
4055;SDS011;2043;52.184;8.690;2023-09-12T05:00:56;18.97;;;8.70;;
4055;SDS011;2043;52.184;8.690;2023-09-12T05:03:23;18.17;;;8.20;;
4055;SDS011;2043;52.184;8.690;2023-09-12T05:05:52;17.67;;;9.20;;
4055;SDS011;2043;52.184;8.690;2023-09-12T05:08:19;21.37;;;8.67;;
4055;SDS011;2043;52.184;8.690;2023-09-12T05:10:46;16.30;;;8.97;;
4055;SDS011;2043;52.184;8.690;2023-09-12T05:13:13;16.60;;;8.80;;
4055;SDS011;2043;52.184;8.690;2023-09-12T05:15:40;20.73;;;7.27;;
4055;SDS011;2043;52.184;8.690;2023-09-12T05:18:07;11.87;;;6.27;;
4055;SDS011;2043;52.184;8.690;2023-09-12T05:20:35;10.63;;;6.50;;
4055;SDS011;2043;52.184;8.690;2023-09-12T05:23:01;10.70;;;6.27;;
4055;SDS011;2043;52.184;8.690;2023-09-12T05:25:28;12.77;;;6.40;;
4055;SDS011;2043;52.184;8.690;2023-09-12T05:27:56;13.00;;;6.87;;
4055;SDS011;2043;52.184;8.690;2023-09-12T05:30:23;14.17;;;6.73;;
4055;SDS011;2043;52.184;8.690;2023-09-12T05:32:49;11.50;;;6.67;;
4055;SDS011;2043;52.184;8.690;2023-09-12T05:35:16;13.93;;;6.40;;
4055;SDS011;2043;52.184;8.690;2023-09-12T05:37:47;10.93;;;6.47;;
4055;SDS011;2043;52.184;8.690;2023-09-12T05:40:14;23.03;;;8.00;;
4055;SDS011;2043;52.184;8.690;2023-09-12T05:42:41;17.20;;;6.53;;
4055;SDS011;2043;52.184;8.690;2023-09-12T05:45:09;14.13;;;7.50;;
4055;SDS011;2043;52.184;8.690;2023-09-12T05:47:36;14.20;;;7.90;;
4055;SDS011;2043;52.184;8.690;2023-09-12T05:50:03;20.00;;;8.43;;
4055;SDS011;2043;52.184;8.690;2023-09-12T05:52:33;20.97;;;9.20;;
4055;SDS011;2043;52.184;8.690;2023-09-12T05:55:00;17.33;;;8.50;;
4055;SDS011;2043;52.184;8.690;2023-09-12T05:57:27;14.30;;;8.70;;
4055;SDS011;2043;52.184;8.690;2023-09-12T05:59:54;12.13;;;7.53;;
4055;SDS011;2043;52.184;8.690;2023-09-12T06:02:20;17.73;;;9.10;;
4055;SDS011;2043;52.184;8.690;2023-09-12T06:04:47;16.63;;;8.90;;
4055;SDS011;2043;52.184;8.690;2023-09-12T06:07:14;19.03;;;8.10;;
4055;SDS011;2043;52.184;8.690;2023-09-12T06:09:41;14.97;;;8.27;;
4055;SDS011;2043;52.184;8.690;2023-09-12T06:12:08;11.80;;;7.77;;
4055;SDS011;2043;52.184;8.690;2023-09-12T06:14:35;9.77;;;6.77;;
4055;SDS011;2043;52.184;8.690;2023-09-12T06:17:01;17.70;;;7.90;;
4055;SDS011;2043;52.184;8.690;2023-09-12T06:19:29;12.20;;;6.97;;
4055;SDS011;2043;52.184;8.690;2023-09-12T06:21:56;12.67;;;8.00;;
4055;SDS011;2043;52.184;8.690;2023-09-12T06:24:25;16.27;;;7.60;;
4055;SDS011;2043;52.184;8.690;2023-09-12T06:26:52;15.97;;;9.70;;
4055;SDS011;2043;52.184;8.690;2023-09-12T06:29:19;14.50;;;8.53;;
4055;SDS011;2043;52.184;8.690;2023-09-12T06:31:46;25.70;;;9.67;;
4055;SDS011;2043;52.184;8.690;2023-09-12T06:34:13;22.27;;;11.10;;
4055;SDS011;2043;52.184;8.690;2023-09-12T06:36:40;15.17;;;8.80;;
4055;SDS011;2043;52.184;8.690;2023-09-12T06:39:11;15.13;;;9.23;;
4055;SDS011;2043;52.184;8.690;2023-09-12T06:41:37;19.30;;;8.83;;
4055;SDS011;2043;52.184;8.690;2023-09-12T06:44:04;18.70;;;9.03;;
4055;SDS011;2043;52.184;8.690;2023-09-12T06:46:32;14.10;;;8.40;;
4055;SDS011;2043;52.184;8.690;2023-09-12T06:49:02;12.13;;;7.80;;
4055;SDS011;2043;52.184;8.690;2023-09-12T06:51:29;12.77;;;7.43;;
4055;SDS011;2043;52.184;8.690;2023-09-12T06:54:01;16.17;;;7.40;;
4055;SDS011;2043;52.184;8.690;2023-09-12T06:56:28;12.80;;;8.30;;
4055;SDS011;2043;52.184;8.690;2023-09-12T06:58:54;13.00;;;9.03;;
4055;SDS011;2043;52.184;8.690;2023-09-12T07:01:22;12.80;;;8.00;;
4055;SDS011;2043;52.184;8.690;2023-09-12T07:03:49;14.83;;;8.13;;
4055;SDS011;2043;52.184;8.690;2023-09-12T07:06:20;14.30;;;8.00;;
4055;SDS011;2043;52.184;8.690;2023-09-12T07:08:47;15.63;;;9.13;;
4055;SDS011;2043;52.184;8.690;2023-09-12T07:11:14;15.93;;;8.13;;
4055;SDS011;2043;52.184;8.690;2023-09-12T07:13:41;23.00;;;8.63;;
4055;SDS011;2043;52.184;8.690;2023-09-12T07:16:09;10.97;;;8.10;;
4055;SDS011;2043;52.184;8.690;2023-09-12T07:18:36;15.57;;;9.83;;
4055;SDS011;2043;52.184;8.690;2023-09-12T07:21:04;15.23;;;8.63;;
4055;SDS011;2043;52.184;8.690;2023-09-12T07:23:32;20.43;;;9.40;;
4055;SDS011;2043;52.184;8.690;2023-09-12T07:25:59;18.10;;;10.07;;
4055;SDS011;2043;52.184;8.690;2023-09-12T07:28:26;17.80;;;10.00;;
4055;SDS011;2043;52.184;8.690;2023-09-12T07:30:56;16.60;;;11.33;;
4055;SDS011;2043;52.184;8.690;2023-09-12T07:33:23;15.17;;;10.13;;
4055;SDS011;2043;52.184;8.690;2023-09-12T07:35:53;22.90;;;9.90;;
4055;SDS011;2043;52.184;8.690;2023-09-12T07:38:20;12.77;;;8.53;;
4055;SDS011;2043;52.184;8.690;2023-09-12T07:40:48;14.50;;;9.53;;
4055;SDS011;2043;52.184;8.690;2023-09-12T07:43:15;14.20;;;8.67;;
4055;SDS011;2043;52.184;8.690;2023-09-12T07:45:42;15.23;;;8.77;;
4055;SDS011;2043;52.184;8.690;2023-09-12T07:48:10;15.43;;;8.73;;
4055;SDS011;2043;52.184;8.690;2023-09-12T07:50:39;14.37;;;9.17;;
4055;SDS011;2043;52.184;8.690;2023-09-12T07:53:06;14.10;;;8.97;;
4055;SDS011;2043;52.184;8.690;2023-09-12T07:55:37;14.40;;;9.30;;
4055;SDS011;2043;52.184;8.690;2023-09-12T07:58:15;13.40;;;8.03;;
4055;SDS011;2043;52.184;8.690;2023-09-12T08:00:45;18.93;;;8.30;;
4055;SDS011;2043;52.184;8.690;2023-09-12T08:03:12;19.33;;;9.53;;
4055;SDS011;2043;52.184;8.690;2023-09-12T08:05:40;17.17;;;8.40;;
4055;SDS011;2043;52.184;8.690;2023-09-12T08:08:07;20.67;;;9.50;;
4055;SDS011;2043;52.184;8.690;2023-09-12T08:10:34;12.73;;;8.80;;
4055;SDS011;2043;52.184;8.690;2023-09-12T08:13:00;14.80;;;8.57;;
4055;SDS011;2043;52.184;8.690;2023-09-12T08:15:27;16.37;;;9.50;;
4055;SDS011;2043;52.184;8.690;2023-09-12T08:17:54;12.30;;;8.70;;
4055;SDS011;2043;52.184;8.690;2023-09-12T08:20:21;16.20;;;9.07;;
4055;SDS011;2043;52.184;8.690;2023-09-12T08:22:48;15.10;;;9.13;;
4055;SDS011;2043;52.184;8.690;2023-09-12T08:25:15;16.57;;;9.40;;
4055;SDS011;2043;52.184;8.690;2023-09-12T08:27:42;17.10;;;8.73;;
4055;SDS011;2043;52.184;8.690;2023-09-12T08:30:12;17.00;;;9.30;;
4055;SDS011;2043;52.184;8.690;2023-09-12T08:32:40;17.73;;;10.23;;
4055;SDS011;2043;52.184;8.690;2023-09-12T08:35:11;18.93;;;10.33;;
4055;SDS011;2043;52.184;8.690;2023-09-12T08:37:41;24.20;;;9.50;;
4055;SDS011;2043;52.184;8.690;2023-09-12T08:40:09;23.23;;;9.40;;
4055;SDS011;2043;52.184;8.690;2023-09-12T08:42:41;15.47;;;8.50;;
4055;SDS011;2043;52.184;8.690;2023-09-12T08:45:13;16.70;;;8.13;;
4055;SDS011;2043;52.184;8.690;2023-09-12T08:47:41;19.80;;;8.27;;
4055;SDS011;2043;52.184;8.690;2023-09-12T08:50:13;10.93;;;7.33;;
4055;SDS011;2043;52.184;8.690;2023-09-12T08:52:43;13.43;;;7.37;;
4055;SDS011;2043;52.184;8.690;2023-09-12T08:55:34;12.50;;;7.00;;
4055;SDS011;2043;52.184;8.690;2023-09-12T08:58:02;13.77;;;7.77;;
4055;SDS011;2043;52.184;8.690;2023-09-12T09:00:30;15.97;;;7.10;;
4055;SDS011;2043;52.184;8.690;2023-09-12T09:02:58;12.90;;;6.97;;
4055;SDS011;2043;52.184;8.690;2023-09-12T09:05:25;9.40;;;6.50;;
4055;SDS011;2043;52.184;8.690;2023-09-12T09:07:55;10.80;;;7.00;;
4055;SDS011;2043;52.184;8.690;2023-09-12T09:10:23;13.40;;;7.00;;
4055;SDS011;2043;52.184;8.690;2023-09-12T09:13:12;10.70;;;6.53;;
4055;SDS011;2043;52.184;8.690;2023-09-12T09:15:39;10.03;;;7.00;;
4055;SDS011;2043;52.184;8.690;2023-09-12T09:18:08;12.50;;;7.40;;
4055;SDS011;2043;52.184;8.690;2023-09-12T09:20:37;9.63;;;5.90;;
4055;SDS011;2043;52.184;8.690;2023-09-12T09:23:05;11.83;;;7.07;;
4055;SDS011;2043;52.184;8.690;2023-09-12T09:25:36;11.17;;;6.30;;
4055;SDS011;2043;52.184;8.690;2023-09-12T09:31:03;11.00;;;6.73;;
4055;SDS011;2043;52.184;8.690;2023-09-12T09:33:36;9.50;;;6.03;;
4055;SDS011;2043;52.184;8.690;2023-09-12T09:36:05;8.53;;;5.80;;
4055;SDS011;2043;52.184;8.690;2023-09-12T09:38:34;19.13;;;6.63;;
4055;SDS011;2043;52.184;8.690;2023-09-12T09:41:04;8.50;;;6.07;;
4055;SDS011;2043;52.184;8.690;2023-09-12T09:43:33;9.50;;;5.80;;
4055;SDS011;2043;52.184;8.690;2023-09-12T09:45:59;8.83;;;5.93;;
4055;SDS011;2043;52.184;8.690;2023-09-12T09:48:27;12.03;;;6.47;;
4055;SDS011;2043;52.184;8.690;2023-09-12T09:51:00;10.27;;;6.17;;
4055;SDS011;2043;52.184;8.690;2023-09-12T09:53:29;8.77;;;6.20;;
4055;SDS011;2043;52.184;8.690;2023-09-12T09:56:07;11.87;;;7.00;;
4055;SDS011;2043;52.184;8.690;2023-09-12T09:58:59;11.00;;;6.87;;
4055;SDS011;2043;52.184;8.690;2023-09-12T10:01:28;15.13;;;6.67;;
4055;SDS011;2043;52.184;8.690;2023-09-12T10:03:57;10.50;;;6.20;;
4055;SDS011;2043;52.184;8.690;2023-09-12T10:06:26;7.97;;;5.40;;
4055;SDS011;2043;52.184;8.690;2023-09-12T10:08:54;9.63;;;5.30;;
4055;SDS011;2043;52.184;8.690;2023-09-12T10:11:24;8.90;;;5.60;;
4055;SDS011;2043;52.184;8.690;2023-09-12T10:13:57;12.07;;;5.97;;
4055;SDS011;2043;52.184;8.690;2023-09-12T10:16:29;9.37;;;6.13;;
4055;SDS011;2043;52.184;8.690;2023-09-12T10:19:14;11.07;;;6.47;;
4055;SDS011;2043;52.184;8.690;2023-09-12T10:21:53;11.47;;;6.10;;
4055;SDS011;2043;52.184;8.690;2023-09-12T10:24:21;9.83;;;6.00;;
4055;SDS011;2043;52.184;8.690;2023-09-12T10:26:50;10.60;;;6.90;;
4055;SDS011;2043;52.184;8.690;2023-09-12T10:29:18;10.00;;;6.37;;
4055;SDS011;2043;52.184;8.690;2023-09-12T10:31:45;10.80;;;7.10;;
4055;SDS011;2043;52.184;8.690;2023-09-12T10:34:13;10.23;;;6.60;;
4055;SDS011;2043;52.184;8.690;2023-09-12T10:36:44;8.80;;;6.27;;
4055;SDS011;2043;52.184;8.690;2023-09-12T10:39:12;11.00;;;5.90;;
4055;SDS011;2043;52.184;8.690;2023-09-12T10:41:41;11.70;;;6.17;;
4055;SDS011;2043;52.184;8.690;2023-09-12T10:44:12;7.27;;;5.63;;
4055;SDS011;2043;52.184;8.690;2023-09-12T10:46:43;7.87;;;5.50;;
4055;SDS011;2043;52.184;8.690;2023-09-12T10:49:13;9.90;;;6.33;;
4055;SDS011;2043;52.184;8.690;2023-09-12T10:51:41;9.50;;;5.50;;
4055;SDS011;2043;52.184;8.690;2023-09-12T10:54:14;8.20;;;5.50;;
4055;SDS011;2043;52.184;8.690;2023-09-12T10:57:03;10.13;;;5.40;;
4055;SDS011;2043;52.184;8.690;2023-09-12T10:59:30;9.13;;;5.30;;
4055;SDS011;2043;52.184;8.690;2023-09-12T11:04:56;6.80;;;4.60;;
4055;SDS011;2043;52.184;8.690;2023-09-12T11:12:42;6.87;;;3.37;;
4055;SDS011;2043;52.184;8.690;2023-09-12T11:15:09;6.13;;;3.30;;
4055;SDS011;2043;52.184;8.690;2023-09-12T11:17:40;5.83;;;3.43;;
4055;SDS011;2043;52.184;8.690;2023-09-12T11:20:08;5.33;;;3.30;;
4055;SDS011;2043;52.184;8.690;2023-09-12T11:22:45;14.13;;;4.03;;
4055;SDS011;2043;52.184;8.690;2023-09-12T11:28:01;5.53;;;3.47;;
4055;SDS011;2043;52.184;8.690;2023-09-12T11:30:30;7.43;;;3.63;;
4055;SDS011;2043;52.184;8.690;2023-09-12T11:32:57;7.27;;;2.93;;
4055;SDS011;2043;52.184;8.690;2023-09-12T11:35:29;8.93;;;3.20;;
4055;SDS011;2043;52.184;8.690;2023-09-12T11:37:56;5.40;;;2.50;;
4055;SDS011;2043;52.184;8.690;2023-09-12T11:40:43;12.83;;;2.80;;
4055;SDS011;2043;52.184;8.690;2023-09-12T11:43:19;4.67;;;2.50;;
4055;SDS011;2043;52.184;8.690;2023-09-12T11:45:50;5.40;;;2.60;;
4055;SDS011;2043;52.184;8.690;2023-09-12T11:48:18;4.17;;;2.73;;
4055;SDS011;2043;52.184;8.690;2023-09-12T11:50:49;6.33;;;2.70;;
4055;SDS011;2043;52.184;8.690;2023-09-12T11:53:23;4.90;;;2.70;;
4055;SDS011;2043;52.184;8.690;2023-09-12T11:56:01;4.97;;;2.87;;
4055;SDS011;2043;52.184;8.690;2023-09-12T11:58:28;5.33;;;2.57;;
4055;SDS011;2043;52.184;8.690;2023-09-12T12:00:56;3.47;;;2.30;;
4055;SDS011;2043;52.184;8.690;2023-09-12T12:03:25;8.40;;;2.63;;
4055;SDS011;2043;52.184;8.690;2023-09-12T12:05:54;7.93;;;2.63;;
4055;SDS011;2043;52.184;8.690;2023-09-12T12:08:22;5.20;;;3.10;;
4055;SDS011;2043;52.184;8.690;2023-09-12T12:10:52;4.20;;;3.03;;
4055;SDS011;2043;52.184;8.690;2023-09-12T12:13:20;5.40;;;3.37;;
4055;SDS011;2043;52.184;8.690;2023-09-12T12:15:49;4.57;;;3.27;;
4055;SDS011;2043;52.184;8.690;2023-09-12T12:18:16;4.63;;;3.13;;
4055;SDS011;2043;52.184;8.690;2023-09-12T12:20:43;6.80;;;3.20;;
4055;SDS011;2043;52.184;8.690;2023-09-12T12:23:10;8.20;;;3.33;;
4055;SDS011;2043;52.184;8.690;2023-09-12T12:25:37;5.70;;;3.60;;
4055;SDS011;2043;52.184;8.690;2023-09-12T12:28:04;9.07;;;4.37;;
4055;SDS011;2043;52.184;8.690;2023-09-12T12:30:31;6.70;;;3.60;;
4055;SDS011;2043;52.184;8.690;2023-09-12T12:33:00;6.80;;;3.70;;
4055;SDS011;2043;52.184;8.690;2023-09-12T12:38:35;5.40;;;3.37;;
4055;SDS011;2043;52.184;8.690;2023-09-12T12:44:08;5.07;;;3.67;;
4055;SDS011;2043;52.184;8.690;2023-09-12T12:46:47;7.57;;;3.70;;
4055;SDS011;2043;52.184;8.690;2023-09-12T12:49:15;5.83;;;3.67;;
4055;SDS011;2043;52.184;8.690;2023-09-12T12:51:42;4.67;;;3.40;;
4055;SDS011;2043;52.184;8.690;2023-09-12T12:54:10;6.60;;;3.67;;
4055;SDS011;2043;52.184;8.690;2023-09-12T12:56:36;6.37;;;4.30;;
4055;SDS011;2043;52.184;8.690;2023-09-12T12:59:05;6.40;;;3.87;;
4055;SDS011;2043;52.184;8.690;2023-09-12T13:01:35;5.87;;;4.03;;
4055;SDS011;2043;52.184;8.690;2023-09-12T13:04:09;7.70;;;4.60;;
4055;SDS011;2043;52.184;8.690;2023-09-12T13:06:37;6.33;;;4.40;;
4055;SDS011;2043;52.184;8.690;2023-09-12T13:09:04;7.60;;;4.27;;
4055;SDS011;2043;52.184;8.690;2023-09-12T13:11:32;9.47;;;5.27;;
4055;SDS011;2043;52.184;8.690;2023-09-12T13:14:03;7.47;;;4.53;;
4055;SDS011;2043;52.184;8.690;2023-09-12T13:16:38;8.50;;;4.47;;
4055;SDS011;2043;52.184;8.690;2023-09-12T13:19:07;10.60;;;4.47;;
4055;SDS011;2043;52.184;8.690;2023-09-12T13:21:33;5.97;;;3.93;;
4055;SDS011;2043;52.184;8.690;2023-09-12T13:24:01;5.80;;;4.30;;
4055;SDS011;2043;52.184;8.690;2023-09-12T13:26:28;7.70;;;4.47;;
4055;SDS011;2043;52.184;8.690;2023-09-12T13:28:56;6.77;;;4.20;;
4055;SDS011;2043;52.184;8.690;2023-09-12T13:31:23;8.13;;;5.00;;
4055;SDS011;2043;52.184;8.690;2023-09-12T13:33:50;5.30;;;4.00;;
4055;SDS011;2043;52.184;8.690;2023-09-12T13:36:17;8.00;;;4.37;;
4055;SDS011;2043;52.184;8.690;2023-09-12T13:38:46;5.80;;;3.73;;
4055;SDS011;2043;52.184;8.690;2023-09-12T13:41:14;7.07;;;3.70;;
4055;SDS011;2043;52.184;8.690;2023-09-12T13:43:41;11.90;;;4.43;;
4055;SDS011;2043;52.184;8.690;2023-09-12T13:46:11;9.60;;;4.57;;
4055;SDS011;2043;52.184;8.690;2023-09-12T13:48:38;7.70;;;4.20;;
4055;SDS011;2043;52.184;8.690;2023-09-12T13:51:05;9.60;;;4.67;;
4055;SDS011;2043;52.184;8.690;2023-09-12T13:53:32;10.70;;;5.03;;
4055;SDS011;2043;52.184;8.690;2023-09-12T13:55:59;8.43;;;4.80;;
4055;SDS011;2043;52.184;8.690;2023-09-12T13:58:27;6.43;;;4.53;;
4055;SDS011;2043;52.184;8.690;2023-09-12T14:01:08;7.50;;;4.73;;
4055;SDS011;2043;52.184;8.690;2023-09-12T14:03:36;9.70;;;4.83;;
4055;SDS011;2043;52.184;8.690;2023-09-12T14:06:04;11.23;;;5.80;;
4055;SDS011;2043;52.184;8.690;2023-09-12T14:08:31;5.57;;;3.80;;
4055;SDS011;2043;52.184;8.690;2023-09-12T14:10:58;6.23;;;3.60;;
4055;SDS011;2043;52.184;8.690;2023-09-12T14:13:26;5.40;;;3.40;;
4055;SDS011;2043;52.184;8.690;2023-09-12T14:15:54;4.60;;;3.40;;
4055;SDS011;2043;52.184;8.690;2023-09-12T14:18:22;5.07;;;2.90;;
4055;SDS011;2043;52.184;8.690;2023-09-12T14:20:51;6.70;;;3.83;;
4055;SDS011;2043;52.184;8.690;2023-09-12T14:23:19;9.03;;;3.60;;
4055;SDS011;2043;52.184;8.690;2023-09-12T14:25:48;8.10;;;3.70;;
4055;SDS011;2043;52.184;8.690;2023-09-12T14:28:15;5.47;;;3.40;;
4055;SDS011;2043;52.184;8.690;2023-09-12T14:30:44;10.67;;;3.57;;
4055;SDS011;2043;52.184;8.690;2023-09-12T14:33:12;6.93;;;3.80;;
4055;SDS011;2043;52.184;8.690;2023-09-12T14:35:43;6.17;;;3.53;;
4055;SDS011;2043;52.184;8.690;2023-09-12T14:38:10;6.77;;;4.00;;
4055;SDS011;2043;52.184;8.690;2023-09-12T14:40:37;5.97;;;3.90;;
4055;SDS011;2043;52.184;8.690;2023-09-12T14:43:09;8.40;;;4.30;;
4055;SDS011;2043;52.184;8.690;2023-09-12T14:45:36;6.60;;;4.40;;
4055;SDS011;2043;52.184;8.690;2023-09-12T14:48:03;5.60;;;3.77;;
4055;SDS011;2043;52.184;8.690;2023-09-12T14:50:30;12.83;;;4.77;;
4055;SDS011;2043;52.184;8.690;2023-09-12T14:53:07;5.33;;;4.20;;
4055;SDS011;2043;52.184;8.690;2023-09-12T14:55:34;5.40;;;3.57;;
4055;SDS011;2043;52.184;8.690;2023-09-12T14:58:01;6.10;;;4.40;;
4055;SDS011;2043;52.184;8.690;2023-09-12T15:00:28;6.37;;;4.03;;
4055;SDS011;2043;52.184;8.690;2023-09-12T15:02:56;5.77;;;4.10;;
4055;SDS011;2043;52.184;8.690;2023-09-12T15:05:23;10.70;;;4.30;;
4055;SDS011;2043;52.184;8.690;2023-09-12T15:07:50;8.37;;;5.07;;
4055;SDS011;2043;52.184;8.690;2023-09-12T15:10:18;5.80;;;3.93;;
4055;SDS011;2043;52.184;8.690;2023-09-12T15:12:45;6.27;;;4.50;;
4055;SDS011;2043;52.184;8.690;2023-09-12T15:15:12;6.20;;;4.30;;
4055;SDS011;2043;52.184;8.690;2023-09-12T15:17:39;9.03;;;4.43;;
4055;SDS011;2043;52.184;8.690;2023-09-12T15:20:07;5.03;;;3.73;;
4055;SDS011;2043;52.184;8.690;2023-09-12T15:22:34;9.40;;;5.00;;
4055;SDS011;2043;52.184;8.690;2023-09-12T15:25:01;6.20;;;3.90;;
4055;SDS011;2043;52.184;8.690;2023-09-12T15:27:29;7.23;;;4.37;;
4055;SDS011;2043;52.184;8.690;2023-09-12T15:29:56;6.10;;;4.33;;
4055;SDS011;2043;52.184;8.690;2023-09-12T15:32:22;8.40;;;4.77;;
4055;SDS011;2043;52.184;8.690;2023-09-12T15:34:49;10.53;;;4.03;;
4055;SDS011;2043;52.184;8.690;2023-09-12T15:37:16;6.87;;;4.20;;
4055;SDS011;2043;52.184;8.690;2023-09-12T15:39:48;9.50;;;4.20;;
4055;SDS011;2043;52.184;8.690;2023-09-12T15:42:15;7.20;;;4.73;;
4055;SDS011;2043;52.184;8.690;2023-09-12T15:45:00;6.73;;;3.97;;
4055;SDS011;2043;52.184;8.690;2023-09-12T15:47:29;7.90;;;4.20;;
4055;SDS011;2043;52.184;8.690;2023-09-12T15:49:56;9.47;;;4.23;;
4055;SDS011;2043;52.184;8.690;2023-09-12T15:52:23;7.40;;;5.30;;
4055;SDS011;2043;52.184;8.690;2023-09-12T15:54:50;5.67;;;4.07;;
4055;SDS011;2043;52.184;8.690;2023-09-12T15:57:19;5.80;;;3.93;;
4055;SDS011;2043;52.184;8.690;2023-09-12T15:59:46;5.53;;;4.07;;